createdAt,value
2019-05-09T00:00:19.487Z,9.40
2019-05-09T00:02:54.041Z,9.40
2019-05-09T00:05:27.032Z,9.30
2019-05-09T00:08:00.698Z,9.30
2019-05-09T00:10:39.484Z,9.30
2019-05-09T00:13:07.691Z,9.20
2019-05-09T00:15:43.678Z,9.20
2019-05-09T00:18:16.043Z,9.20
2019-05-09T00:20:54.009Z,9.20
2019-05-09T00:23:27.383Z,9.20
2019-05-09T00:26:04.127Z,9.10
2019-05-09T00:28:38.001Z,9.10
2019-05-09T00:31:20.626Z,9.10
2019-05-09T00:33:57.024Z,9.10
2019-05-09T00:36:29.771Z,9.10
2019-05-09T00:39:04.106Z,9.10
2019-05-09T00:41:36.513Z,9.00
2019-05-09T00:44:19.921Z,9.00
2019-05-09T00:47:04.228Z,9.00
2019-05-09T00:49:36.652Z,8.90
2019-05-09T00:52:09.953Z,8.90
2019-05-09T00:54:43.839Z,8.80
2019-05-09T00:57:39.514Z,8.80
2019-05-09T01:00:14.780Z,8.70
2019-05-09T01:02:47.045Z,8.70
2019-05-09T01:05:18.804Z,8.70
2019-05-09T01:07:50.722Z,8.60
2019-05-09T01:10:23.682Z,8.60
2019-05-09T01:12:56.061Z,8.50
2019-05-09T01:18:38.546Z,8.50
2019-05-09T01:21:13.377Z,8.50
2019-05-09T01:23:46.574Z,8.40
2019-05-09T01:26:21.194Z,8.40
2019-05-09T01:28:53.985Z,8.40
2019-05-09T01:31:26.390Z,8.40
2019-05-09T01:34:07.900Z,8.40
2019-05-09T01:37:14.467Z,8.50
2019-05-09T01:39:46.963Z,8.50
2019-05-09T01:42:20.461Z,8.50
2019-05-09T01:44:53.324Z,8.50
2019-05-09T01:47:25.501Z,8.50
2019-05-09T01:49:58.363Z,8.50
2019-05-09T01:52:33.816Z,8.50
2019-05-09T01:55:07.522Z,8.50
2019-05-09T01:57:40.311Z,8.50
2019-05-09T02:00:13.284Z,8.40
2019-05-09T02:02:45.248Z,8.40
2019-05-09T02:05:17.872Z,8.50
2019-05-09T02:07:51.513Z,8.50
2019-05-09T02:10:25.895Z,8.50
2019-05-09T02:12:59.643Z,8.50
2019-05-09T02:15:58.065Z,8.50
2019-05-09T02:18:40.238Z,8.60
2019-05-09T02:21:14.671Z,8.50
2019-05-09T02:23:48.095Z,8.50
2019-05-09T02:26:20.187Z,8.40
2019-05-09T02:28:53.902Z,8.40
2019-05-09T02:34:37.582Z,8.30
2019-05-09T02:37:10.153Z,8.20
2019-05-09T02:39:43.231Z,8.20
2019-05-09T02:42:20.060Z,8.20
2019-05-09T02:44:54.081Z,8.10
2019-05-09T02:47:30.443Z,8.10
2019-05-09T02:50:02.708Z,8.00
2019-05-09T02:52:35.713Z,8.00
2019-05-09T02:55:09.870Z,8.00
2019-05-09T02:57:48.920Z,8.10
2019-05-09T03:00:55.240Z,8.10
2019-05-09T03:03:29.329Z,8.10
2019-05-09T03:06:03.875Z,8.00
2019-05-09T03:08:49.076Z,8.10
2019-05-09T03:11:21.074Z,8.00
2019-05-09T03:13:54.477Z,8.00
2019-05-09T03:16:29.309Z,8.00
2019-05-09T03:19:02.020Z,8.00
2019-05-09T03:21:39.329Z,8.10
2019-05-09T03:24:11.977Z,8.00
2019-05-09T03:26:49.351Z,8.00
2019-05-09T03:29:40.713Z,8.00
2019-05-09T03:32:13.434Z,8.00
2019-05-09T03:38:08.805Z,7.90
2019-05-09T03:40:42.423Z,7.90
2019-05-09T03:43:22.479Z,7.90
2019-05-09T03:46:04.718Z,7.80
2019-05-09T03:48:42.444Z,7.80
2019-05-09T03:51:18.465Z,7.80
2019-05-09T03:53:57.641Z,7.80
2019-05-09T03:56:40.269Z,7.70
2019-05-09T03:59:13.447Z,7.70
2019-05-09T04:01:50.190Z,7.70
2019-05-09T04:04:23.099Z,7.60
2019-05-09T04:06:58.995Z,7.60
2019-05-09T04:09:35.171Z,7.60
2019-05-09T04:12:13.361Z,7.60
2019-05-09T04:14:47.974Z,7.60
2019-05-09T04:17:20.031Z,7.60
2019-05-09T04:20:01.200Z,7.60
2019-05-09T04:22:39.207Z,7.60
2019-05-09T04:25:18.163Z,7.60
2019-05-09T04:27:54.761Z,7.60
2019-05-09T04:30:27.448Z,7.70
2019-05-09T04:33:13.552Z,7.60
2019-05-09T04:35:51.231Z,7.70
2019-05-09T04:38:24.844Z,7.80
2019-05-09T04:40:59.504Z,7.80
2019-05-09T04:43:36.660Z,7.90
2019-05-09T04:46:30.765Z,7.90
2019-05-09T04:49:08.245Z,8.00
2019-05-09T04:51:41.455Z,8.00
2019-05-09T04:54:14.675Z,8.10
2019-05-09T04:56:53.911Z,8.10
2019-05-09T04:59:30.804Z,8.10
2019-05-09T05:02:21.225Z,8.20
2019-05-09T05:04:54.369Z,8.30
2019-05-09T05:07:28.543Z,8.40
2019-05-09T05:10:08.782Z,8.50
2019-05-09T05:12:41.139Z,8.60
2019-05-09T05:15:17.966Z,8.70
2019-05-09T05:17:53.736Z,8.70
2019-05-09T05:20:27.784Z,8.80
2019-05-09T05:23:12.112Z,8.80
2019-05-09T05:25:47.021Z,8.90
2019-05-09T05:28:19.744Z,8.90
2019-05-09T05:30:52.933Z,9.00
2019-05-09T05:33:53.943Z,9.10
2019-05-09T05:36:33.442Z,9.20
2019-05-09T05:39:09.375Z,9.20
2019-05-09T05:41:48.265Z,9.30
2019-05-09T05:44:19.565Z,9.40
2019-05-09T05:47:14.276Z,9.50
2019-05-09T05:49:48.792Z,9.60
2019-05-09T05:52:21.104Z,9.70
2019-05-09T05:54:54.411Z,9.80
2019-05-09T05:57:28.000Z,9.90
2019-05-09T06:00:01.157Z,10.10
2019-05-09T06:02:38.329Z,10.20
2019-05-09T06:05:10.428Z,10.30
2019-05-09T06:07:44.103Z,10.30
2019-05-09T06:10:20.814Z,10.40
2019-05-09T06:12:53.469Z,10.50
2019-05-09T06:15:25.648Z,10.60
2019-05-09T06:17:58.753Z,10.60
2019-05-09T06:20:32.257Z,10.70
2019-05-09T06:23:04.635Z,10.70
2019-05-09T06:25:39.001Z,10.70
2019-05-09T06:28:12.905Z,10.70
2019-05-09T06:30:47.689Z,10.80
2019-05-09T06:33:19.018Z,10.90
2019-05-09T06:35:58.857Z,10.90
2019-05-09T06:41:49.683Z,11.00
2019-05-09T06:45:04.897Z,11.10
2019-05-09T06:47:48.497Z,11.10
2019-05-09T06:50:27.113Z,11.30
2019-05-09T06:53:00.125Z,11.50
2019-05-09T06:55:52.316Z,11.70
2019-05-09T06:58:43.060Z,11.90
2019-05-09T07:01:33.674Z,12.10
2019-05-09T07:04:15.592Z,12.10
2019-05-09T07:06:59.795Z,12.20
2019-05-09T07:09:42.814Z,12.30
2019-05-09T07:12:19.190Z,12.40
2019-05-09T07:14:51.998Z,12.50
2019-05-09T07:17:24.259Z,12.60
2019-05-09T07:20:14.642Z,12.80
2019-05-09T07:23:00.494Z,12.80
2019-05-09T07:25:52.774Z,12.90
2019-05-09T07:28:28.258Z,13.00
2019-05-09T07:31:12.252Z,13.10
2019-05-09T07:33:58.884Z,13.30
2019-05-09T07:36:31.338Z,13.40
2019-05-09T07:39:13.918Z,13.50
2019-05-09T07:41:47.932Z,13.60
2019-05-09T07:44:21.540Z,13.70
2019-05-09T07:47:00.186Z,13.80
2019-05-09T07:49:34.235Z,13.80
2019-05-09T07:52:09.414Z,13.90
2019-05-09T07:54:44.674Z,13.90
2019-05-09T07:57:18.589Z,14.00
2019-05-09T07:59:50.517Z,14.00
2019-05-09T08:02:23.010Z,14.00
2019-05-09T08:04:57.916Z,14.00
2019-05-09T08:10:43.042Z,14.00
2019-05-09T08:13:21.041Z,13.90
2019-05-09T08:15:51.588Z,13.90
2019-05-09T08:18:23.796Z,14.20
2019-05-09T08:20:57.812Z,14.60
2019-05-09T08:23:31.513Z,14.80
2019-05-09T08:26:04.729Z,14.90
2019-05-09T08:28:38.973Z,14.90
2019-05-09T08:31:13.397Z,14.90
2019-05-09T08:33:48.529Z,15.10
2019-05-09T08:36:20.438Z,15.20
2019-05-09T08:39:03.661Z,15.00
2019-05-09T08:41:52.152Z,14.80
2019-05-09T08:44:25.693Z,14.70
2019-05-09T08:46:59.125Z,14.50
2019-05-09T08:49:54.782Z,14.40
2019-05-09T08:52:28.790Z,14.60
2019-05-09T08:55:04.415Z,14.70
2019-05-09T08:57:37.596Z,14.80
2019-05-09T09:00:12.520Z,14.80
2019-05-09T09:02:44.467Z,14.90
2019-05-09T09:08:29.198Z,15.20
2019-05-09T09:11:01.967Z,15.60
2019-05-09T09:13:37.756Z,16.00
2019-05-09T09:16:18.713Z,16.00
2019-05-09T09:18:48.069Z,15.90
2019-05-09T09:21:20.987Z,15.90
2019-05-09T09:23:53.601Z,15.80
2019-05-09T09:26:28.120Z,15.80
2019-05-09T09:29:01.241Z,15.90
2019-05-09T09:31:33.088Z,15.80
2019-05-09T09:34:13.946Z,15.80
2019-05-09T09:36:48.068Z,15.80
2019-05-09T09:39:21.622Z,15.80
2019-05-09T09:41:53.888Z,15.90
2019-05-09T09:44:28.505Z,15.90
2019-05-09T09:47:00.929Z,16.20
2019-05-09T09:49:33.724Z,16.60
2019-05-09T09:52:15.602Z,16.90
2019-05-09T09:55:21.280Z,16.60
2019-05-09T09:57:54.867Z,16.20
2019-05-09T10:00:51.456Z,16.20
2019-05-09T10:03:25.594Z,16.60
2019-05-09T10:05:59.962Z,16.90
2019-05-09T10:08:32.235Z,17.10
2019-05-09T10:11:12.439Z,17.30
2019-05-09T10:13:58.306Z,17.50
2019-05-09T10:16:49.607Z,17.40
2019-05-09T10:19:27.907Z,17.50
2019-05-09T10:22:01.468Z,17.40
2019-05-09T10:24:35.103Z,17.40
2019-05-09T10:27:28.310Z,17.30
2019-05-09T10:30:04.103Z,17.10
2019-05-09T10:32:38.308Z,17.20
2019-05-09T10:35:27.979Z,17.30
2019-05-09T10:41:40.503Z,17.70
2019-05-09T10:44:30.636Z,17.80
2019-05-09T10:47:28.821Z,17.90
2019-05-09T10:50:11.708Z,17.70
2019-05-09T10:52:43.554Z,17.70
2019-05-09T10:55:17.697Z,17.60
2019-05-09T10:57:53.998Z,17.40
2019-05-09T11:00:28.864Z,17.30
2019-05-09T11:03:02.960Z,17.10
2019-05-09T11:05:39.750Z,17.00
2019-05-09T11:08:18.332Z,17.00
2019-05-09T11:10:50.475Z,16.90
2019-05-09T11:13:28.525Z,17.00
2019-05-09T11:16:01.906Z,17.20
2019-05-09T11:18:36.882Z,17.50
2019-05-09T11:21:11.929Z,17.70
2019-05-09T11:23:44.465Z,18.00
2019-05-09T11:26:17.877Z,18.60
2019-05-09T11:28:51.019Z,19.00
2019-05-09T11:31:23.707Z,19.30
2019-05-09T11:34:02.685Z,19.10
2019-05-09T11:36:45.101Z,18.80
2019-05-09T11:39:35.201Z,18.40
2019-05-09T11:41:51.797Z,18.10
2019-05-09T11:44:24.411Z,17.80
2019-05-09T11:46:58.294Z,17.50
2019-05-09T11:49:33.242Z,17.20
2019-05-09T11:52:08.619Z,17.40
2019-05-09T11:54:48.224Z,17.50
2019-05-09T11:57:27.375Z,17.30
2019-05-09T11:59:57.975Z,17.60
2019-05-09T12:05:43.226Z,17.80
2019-05-09T12:08:17.741Z,18.10
2019-05-09T12:11:00.194Z,18.10
2019-05-09T12:13:34.788Z,18.00
2019-05-09T12:16:07.285Z,17.60
2019-05-09T12:18:48.920Z,17.40
2019-05-09T12:21:24.031Z,17.40
2019-05-09T12:23:58.107Z,17.30
2019-05-09T12:26:30.969Z,17.30
2019-05-09T12:32:14.291Z,17.90
2019-05-09T12:34:57.726Z,18.60
2019-05-09T12:37:37.875Z,18.80
2019-05-09T12:40:11.749Z,18.80
2019-05-09T12:45:59.277Z,18.70
2019-05-09T12:48:32.507Z,18.80
2019-05-09T12:51:08.657Z,18.80
2019-05-09T12:57:11.515Z,18.90
2019-05-09T12:59:53.173Z,19.10
2019-05-09T13:02:27.926Z,19.30
2019-05-09T13:05:01.286Z,19.30
2019-05-09T13:08:10.487Z,19.30
2019-05-09T13:10:48.722Z,19.40
2019-05-09T13:13:22.261Z,19.50
2019-05-09T13:16:14.280Z,19.70
2019-05-09T13:19:12.608Z,20.30
2019-05-09T13:21:58.917Z,20.30
2019-05-09T13:24:32.704Z,20.00
2019-05-09T13:27:07.914Z,19.90
2019-05-09T13:29:42.299Z,19.50
2019-05-09T13:32:14.967Z,19.00
2019-05-09T13:34:57.827Z,18.70
2019-05-09T13:37:32.950Z,18.20
2019-05-09T13:40:08.404Z,17.70
2019-05-09T13:42:41.432Z,17.20
2019-05-09T13:45:14.740Z,16.70
2019-05-09T13:47:48.499Z,16.30
2019-05-09T13:50:25.177Z,15.90
2019-05-09T13:53:01.809Z,15.50
2019-05-09T13:55:34.813Z,15.30
2019-05-09T13:58:19.973Z,15.20
2019-05-09T14:00:59.240Z,15.30
2019-05-09T14:03:29.956Z,15.50
2019-05-09T14:06:08.944Z,15.80
2019-05-09T14:08:42.562Z,16.40
2019-05-09T14:11:15.187Z,16.70
2019-05-09T14:13:48.743Z,17.10
2019-05-09T14:16:22.573Z,17.40
2019-05-09T14:18:55.716Z,17.90
2019-05-09T14:21:29.945Z,18.40
2019-05-09T14:24:14.131Z,18.80
2019-05-09T14:26:37.146Z,18.90
2019-05-09T14:29:12.798Z,19.00
2019-05-09T14:31:45.039Z,19.00
2019-05-09T14:34:22.936Z,19.00
2019-05-09T14:36:55.062Z,18.30
2019-05-09T14:39:30.060Z,18.20
2019-05-09T14:42:02.420Z,17.90
2019-05-09T14:45:03.144Z,17.80
2019-05-09T14:47:41.874Z,17.80
2019-05-09T14:50:19.729Z,17.50
2019-05-09T14:52:52.730Z,17.40
2019-05-09T14:55:28.546Z,17.10
2019-05-09T14:58:02.757Z,16.70
2019-05-09T15:00:35.355Z,16.40
2019-05-09T15:03:08.193Z,15.90
2019-05-09T15:05:40.352Z,15.40
2019-05-09T15:08:12.579Z,14.70
2019-05-09T15:10:48.505Z,14.50
2019-05-09T15:13:22.450Z,14.40
2019-05-09T15:15:59.670Z,14.30
2019-05-09T15:18:33.482Z,14.10
2019-05-09T15:21:07.858Z,14.10
2019-05-09T15:23:41.057Z,14.00
2019-05-09T15:26:18.072Z,13.90
2019-05-09T15:28:54.726Z,13.60
2019-05-09T15:31:28.611Z,13.40
2019-05-09T15:34:02.828Z,13.30
2019-05-09T15:36:35.031Z,13.20
2019-05-09T15:39:18.413Z,13.30
2019-05-09T15:41:57.784Z,13.40
2019-05-09T15:44:31.788Z,13.90
2019-05-09T15:47:13.535Z,14.10
2019-05-09T15:49:49.168Z,14.30
2019-05-09T15:52:28.571Z,14.50
2019-05-09T15:55:01.954Z,14.60
2019-05-09T15:57:34.631Z,14.70
2019-05-09T16:00:10.249Z,14.70
2019-05-09T16:02:42.790Z,14.70
2019-05-09T16:05:15.631Z,14.60
2019-05-09T16:07:48.882Z,14.70
2019-05-09T16:10:21.876Z,14.70
2019-05-09T16:12:54.029Z,14.60
2019-05-09T16:15:28.559Z,14.70
2019-05-09T16:18:05.178Z,14.90
2019-05-09T16:20:41.141Z,15.00
2019-05-09T16:23:12.807Z,15.10
2019-05-09T16:25:50.262Z,15.10
2019-05-09T16:28:30.516Z,15.10
2019-05-09T16:31:05.560Z,15.00
2019-05-09T16:33:38.787Z,14.90
2019-05-09T16:36:11.779Z,14.80
2019-05-09T16:39:04.402Z,14.70
2019-05-09T16:41:39.538Z,14.50
2019-05-09T16:44:17.988Z,14.40
2019-05-09T16:46:49.508Z,14.30
2019-05-09T16:49:26.064Z,14.20
2019-05-09T16:51:58.299Z,14.10
2019-05-09T16:54:38.765Z,14.00
2019-05-09T16:57:18.203Z,13.90
2019-05-09T16:59:52.510Z,13.80
2019-05-09T17:02:25.240Z,13.80
2019-05-09T17:04:58.540Z,13.80
2019-05-09T17:07:30.475Z,13.80
2019-05-09T17:10:02.538Z,13.70
2019-05-09T17:12:34.718Z,13.70
2019-05-09T17:15:08.570Z,13.70
2019-05-09T17:17:40.838Z,13.70
2019-05-09T17:20:14.957Z,13.60
2019-05-09T17:23:15.860Z,13.60
2019-05-09T17:25:49.466Z,13.50
2019-05-09T17:28:21.491Z,13.50
2019-05-09T17:30:53.611Z,13.50
2019-05-09T17:33:25.413Z,13.40
2019-05-09T17:35:58.094Z,13.40
2019-05-09T17:38:30.349Z,13.50
2019-05-09T17:41:02.907Z,13.50
2019-05-09T17:43:34.775Z,13.40
2019-05-09T17:46:07.619Z,13.40
2019-05-09T17:48:40.524Z,13.40
2019-05-09T17:51:12.448Z,13.40
2019-05-09T17:53:44.639Z,13.40
2019-05-09T17:56:16.895Z,13.30
2019-05-09T17:58:49.788Z,13.30
2019-05-09T18:01:22.413Z,13.30
2019-05-09T18:03:54.762Z,13.20
2019-05-09T18:06:28.182Z,13.20
2019-05-09T18:09:01.308Z,13.20
2019-05-09T18:11:37.559Z,13.10
2019-05-09T18:14:11.722Z,13.00
2019-05-09T18:16:47.635Z,13.00
2019-05-09T18:19:22.336Z,12.90
2019-05-09T18:25:08.240Z,12.80
2019-05-09T18:27:39.720Z,12.70
2019-05-09T18:30:12.074Z,12.60
2019-05-09T18:33:02.157Z,12.60
2019-05-09T18:38:45.237Z,12.60
2019-05-09T18:41:17.771Z,12.60
2019-05-09T18:47:01.147Z,12.50
2019-05-09T18:49:36.375Z,12.50
2019-05-09T18:52:09.566Z,12.40
2019-05-09T18:54:41.419Z,12.50
2019-05-09T18:57:13.587Z,12.50
2019-05-09T18:59:45.678Z,12.50
2019-05-09T19:02:18.551Z,12.40
2019-05-09T19:04:51.568Z,12.40
2019-05-09T19:07:23.996Z,12.40
2019-05-09T19:10:03.764Z,12.40
2019-05-09T19:15:58.058Z,12.30
2019-05-09T19:18:38.774Z,12.30
2019-05-09T19:21:17.780Z,12.20
2019-05-09T19:23:50.097Z,12.20
2019-05-09T19:26:37.731Z,12.20
2019-05-09T19:32:20.456Z,12.10
2019-05-09T19:34:52.566Z,12.10
2019-05-09T19:37:24.320Z,12.00
2019-05-09T19:39:55.918Z,11.90
2019-05-09T19:42:28.106Z,12.00
2019-05-09T19:45:00.283Z,11.90
2019-05-09T19:47:33.263Z,11.90
2019-05-09T19:50:05.733Z,11.90
2019-05-09T19:52:38.856Z,11.90
2019-05-09T19:55:11.889Z,11.90
2019-05-09T19:57:45.018Z,12.00
2019-05-09T20:00:17.795Z,11.90
2019-05-09T20:02:54.031Z,11.90
2019-05-09T20:05:26.911Z,11.90
2019-05-09T20:08:09.967Z,11.90
2019-05-09T20:11:19.747Z,11.90
2019-05-09T20:14:12.534Z,11.90
2019-05-09T20:16:47.765Z,11.90
2019-05-09T20:19:19.595Z,11.90
2019-05-09T20:21:57.626Z,11.90
2019-05-09T20:24:30.315Z,11.80
2019-05-09T20:27:02.950Z,11.90
2019-05-09T20:29:34.787Z,11.90
2019-05-09T20:32:06.870Z,11.90
2019-05-09T20:34:38.727Z,11.90
2019-05-09T20:37:10.533Z,11.90
2019-05-09T20:39:42.577Z,11.90
2019-05-09T20:45:25.592Z,11.90
2019-05-09T20:47:57.642Z,11.90
2019-05-09T20:50:29.538Z,11.90
2019-05-09T20:53:09.514Z,11.90
2019-05-09T20:55:39.110Z,11.90
2019-05-09T20:58:19.084Z,11.80
2019-05-09T21:00:52.690Z,11.80
2019-05-09T21:03:24.379Z,11.70
2019-05-09T21:05:58.066Z,11.70
2019-05-09T21:08:34.858Z,11.70
2019-05-09T21:11:08.631Z,11.70
2019-05-09T21:13:48.498Z,11.70
2019-05-09T21:16:14.969Z,11.60
2019-05-09T21:18:47.320Z,11.60
2019-05-09T21:21:19.409Z,11.60
2019-05-09T21:23:57.102Z,11.60
2019-05-09T21:26:30.577Z,11.60
2019-05-09T21:29:05.488Z,11.60
2019-05-09T21:31:39.771Z,11.50
2019-05-09T21:34:13.345Z,11.50
2019-05-09T21:36:45.451Z,11.40
2019-05-09T21:39:17.600Z,11.30
2019-05-09T21:41:50.180Z,11.30
2019-05-09T21:44:22.424Z,11.20
2019-05-09T21:46:55.150Z,11.20
2019-05-09T21:49:27.139Z,11.20
2019-05-09T21:52:00.042Z,11.10
2019-05-09T21:54:38.809Z,11.10
2019-05-09T21:57:11.262Z,11.10
2019-05-09T21:59:43.793Z,11.10
2019-05-09T22:02:16.305Z,11.00
2019-05-09T22:04:49.677Z,11.00
2019-05-09T22:07:22.171Z,11.00
2019-05-09T22:09:54.012Z,11.00
2019-05-09T22:12:25.998Z,11.00
2019-05-09T22:14:58.139Z,11.00
2019-05-09T22:17:47.000Z,11.00
2019-05-09T22:20:22.457Z,11.00
2019-05-09T22:22:55.399Z,11.00
2019-05-09T22:25:27.525Z,11.00
2019-05-09T22:28:04.557Z,11.00
2019-05-09T22:30:37.793Z,11.00
2019-05-09T22:33:18.245Z,11.00
2019-05-09T22:35:51.910Z,11.00
2019-05-09T22:38:25.107Z,11.10
2019-05-09T22:40:58.259Z,11.00
2019-05-09T22:43:34.428Z,11.00
2019-05-09T22:46:06.330Z,11.10
2019-05-09T22:48:44.536Z,11.10
2019-05-09T22:51:23.734Z,11.10
2019-05-09T22:54:11.657Z,11.10
2019-05-09T22:56:33.398Z,11.10
2019-05-09T22:59:05.673Z,11.10
2019-05-09T23:01:37.725Z,11.20
2019-05-09T23:04:16.334Z,11.10
2019-05-09T23:06:51.652Z,11.10
2019-05-09T23:09:25.453Z,11.10
2019-05-09T23:12:01.947Z,11.10
2019-05-09T23:14:34.458Z,11.10
2019-05-09T23:17:07.284Z,11.10
2019-05-09T23:19:43.570Z,11.00
2019-05-09T23:22:18.177Z,11.00
2019-05-09T23:25:00.338Z,11.00
2019-05-09T23:27:34.039Z,10.90
2019-05-09T23:30:07.173Z,10.90
2019-05-09T23:32:45.547Z,10.90
2019-05-09T23:35:23.521Z,10.90
2019-05-09T23:37:58.455Z,10.90
2019-05-09T23:40:31.418Z,10.80
2019-05-09T23:43:04.075Z,10.80
2019-05-09T23:45:37.321Z,10.70
2019-05-09T23:48:12.420Z,10.70
2019-05-09T23:50:47.559Z,10.70
2019-05-09T23:53:33.605Z,10.70
2019-05-09T23:56:23.277Z,10.80
2019-05-09T23:59:16.083Z,10.70
